sensor_id;sensor_type;location;lat;lon;timestamp;temperature;humidity
1592;DHT22;789;51.612;7.510;2024-01-06T00:02:12;8.70;1.00
1592;DHT22;789;51.612;7.510;2024-01-06T00:04:39;8.80;1.00
1592;DHT22;789;51.612;7.510;2024-01-06T00:07:06;8.80;1.00
1592;DHT22;789;51.612;7.510;2024-01-06T00:09:33;8.80;1.00
1592;DHT22;789;51.612;7.510;2024-01-06T00:12:01;8.90;1.00
1592;DHT22;789;51.612;7.510;2024-01-06T00:14:29;8.80;1.00
1592;DHT22;789;51.612;7.510;2024-01-06T00:16:56;9.00;1.00
1592;DHT22;789;51.612;7.510;2024-01-06T00:19:23;8.80;1.00
1592;DHT22;789;51.612;7.510;2024-01-06T00:21:50;8.70;1.00
1592;DHT22;789;51.612;7.510;2024-01-06T00:24:16;8.70;1.00
1592;DHT22;789;51.612;7.510;2024-01-06T00:26:43;8.70;1.00
1592;DHT22;789;51.612;7.510;2024-01-06T00:29:13;8.60;1.00
1592;DHT22;789;51.612;7.510;2024-01-06T00:31:40;8.70;1.00
1592;DHT22;789;51.612;7.510;2024-01-06T00:34:06;8.70;1.00
1592;DHT22;789;51.612;7.510;2024-01-06T00:36:35;8.70;1.00
1592;DHT22;789;51.612;7.510;2024-01-06T00:39:02;8.60;1.00
1592;DHT22;789;51.612;7.510;2024-01-06T00:41:29;8.70;1.00
1592;DHT22;789;51.612;7.510;2024-01-06T00:43:56;8.80;1.00
1592;DHT22;789;51.612;7.510;2024-01-06T00:46:24;8.80;1.00
1592;DHT22;789;51.612;7.510;2024-01-06T00:48:50;8.80;1.00
1592;DHT22;789;51.612;7.510;2024-01-06T00:51:17;8.80;1.00
1592;DHT22;789;51.612;7.510;2024-01-06T00:53:44;8.80;1.00
1592;DHT22;789;51.612;7.510;2024-01-06T00:56:10;8.80;1.00
1592;DHT22;789;51.612;7.510;2024-01-06T00:58:37;8.80;1.00
1592;DHT22;789;51.612;7.510;2024-01-06T01:01:04;8.80;1.00
1592;DHT22;789;51.612;7.510;2024-01-06T01:03:32;8.90;1.00
1592;DHT22;789;51.612;7.510;2024-01-06T01:05:59;8.90;1.00
1592;DHT22;789;51.612;7.510;2024-01-06T01:08:25;8.90;1.00
1592;DHT22;789;51.612;7.510;2024-01-06T01:10:52;8.90;1.00
1592;DHT22;789;51.612;7.510;2024-01-06T01:13:19;8.90;1.00
1592;DHT22;789;51.612;7.510;2024-01-06T01:15:45;8.90;1.00
1592;DHT22;789;51.612;7.510;2024-01-06T01:18:13;8.90;1.00
1592;DHT22;789;51.612;7.510;2024-01-06T01:20:41;9.00;1.00
1592;DHT22;789;51.612;7.510;2024-01-06T01:23:08;9.00;1.00
1592;DHT22;789;51.612;7.510;2024-01-06T01:25:35;9.00;1.00
1592;DHT22;789;51.612;7.510;2024-01-06T01:28:01;9.00;1.00
1592;DHT22;789;51.612;7.510;2024-01-06T01:30:31;9.10;1.00
1592;DHT22;789;51.612;7.510;2024-01-06T01:32:58;9.00;1.00
1592;DHT22;789;51.612;7.510;2024-01-06T01:35:25;9.00;1.00
1592;DHT22;789;51.612;7.510;2024-01-06T01:37:53;9.00;1.00
1592;DHT22;789;51.612;7.510;2024-01-06T01:40:22;9.00;1.00
1592;DHT22;789;51.612;7.510;2024-01-06T01:42:49;9.00;1.00
1592;DHT22;789;51.612;7.510;2024-01-06T01:45:16;9.00;1.00
1592;DHT22;789;51.612;7.510;2024-01-06T01:47:43;8.90;1.00
1592;DHT22;789;51.612;7.510;2024-01-06T01:50:12;8.80;1.00
1592;DHT22;789;51.612;7.510;2024-01-06T01:52:39;8.80;1.00
1592;DHT22;789;51.612;7.510;2024-01-06T01:55:10;8.80;1.00
1592;DHT22;789;51.612;7.510;2024-01-06T01:57:37;8.80;1.00
1592;DHT22;789;51.612;7.510;2024-01-06T02:00:07;8.90;1.00
1592;DHT22;789;51.612;7.510;2024-01-06T02:02:35;8.90;1.00
1592;DHT22;789;51.612;7.510;2024-01-06T02:05:02;8.90;1.00
1592;DHT22;789;51.612;7.510;2024-01-06T02:07:29;9.00;1.00
1592;DHT22;789;51.612;7.510;2024-01-06T02:09:55;8.90;1.00
1592;DHT22;789;51.612;7.510;2024-01-06T02:12:23;8.80;1.00
1592;DHT22;789;51.612;7.510;2024-01-06T02:14:55;8.80;1.00
1592;DHT22;789;51.612;7.510;2024-01-06T02:17:22;8.90;1.00
1592;DHT22;789;51.612;7.510;2024-01-06T02:19:49;8.80;1.00
1592;DHT22;789;51.612;7.510;2024-01-06T02:22:17;8.90;1.00
1592;DHT22;789;51.612;7.510;2024-01-06T02:24:43;8.90;1.00
1592;DHT22;789;51.612;7.510;2024-01-06T02:27:10;9.00;1.00
1592;DHT22;789;51.612;7.510;2024-01-06T02:29:37;9.00;1.00
1592;DHT22;789;51.612;7.510;2024-01-06T02:32:04;9.00;1.00
1592;DHT22;789;51.612;7.510;2024-01-06T02:34:31;9.00;1.00
1592;DHT22;789;51.612;7.510;2024-01-06T02:36:58;9.00;1.00
1592;DHT22;789;51.612;7.510;2024-01-06T02:39:26;9.00;1.00
1592;DHT22;789;51.612;7.510;2024-01-06T02:41:53;9.10;1.00
1592;DHT22;789;51.612;7.510;2024-01-06T02:44:19;9.00;1.00
1592;DHT22;789;51.612;7.510;2024-01-06T02:46:48;9.00;1.00
1592;DHT22;789;51.612;7.510;2024-01-06T02:49:14;9.00;1.00
1592;DHT22;789;51.612;7.510;2024-01-06T02:51:43;8.80;1.00
1592;DHT22;789;51.612;7.510;2024-01-06T02:54:10;8.90;1.00
1592;DHT22;789;51.612;7.510;2024-01-06T02:56:38;8.80;1.00
1592;DHT22;789;51.612;7.510;2024-01-06T02:59:04;8.90;1.00
1592;DHT22;789;51.612;7.510;2024-01-06T03:01:31;8.80;1.00
1592;DHT22;789;51.612;7.510;2024-01-06T03:03:58;8.80;1.00
1592;DHT22;789;51.612;7.510;2024-01-06T03:06:25;8.70;1.00
1592;DHT22;789;51.612;7.510;2024-01-06T03:08:51;8.80;1.00
1592;DHT22;789;51.612;7.510;2024-01-06T03:11:18;8.70;1.00
1592;DHT22;789;51.612;7.510;2024-01-06T03:13:46;8.70;1.00
1592;DHT22;789;51.612;7.510;2024-01-06T03:16:13;8.70;1.00
1592;DHT22;789;51.612;7.510;2024-01-06T03:18:40;8.70;1.00
1592;DHT22;789;51.612;7.510;2024-01-06T03:21:16;8.70;1.00
1592;DHT22;789;51.612;7.510;2024-01-06T03:23:43;8.70;1.00
1592;DHT22;789;51.612;7.510;2024-01-06T03:26:10;8.60;1.00
1592;DHT22;789;51.612;7.510;2024-01-06T03:28:36;8.60;1.00
1592;DHT22;789;51.612;7.510;2024-01-06T03:31:04;8.60;1.00
1592;DHT22;789;51.612;7.510;2024-01-06T03:33:31;8.50;1.00
1592;DHT22;789;51.612;7.510;2024-01-06T03:35:58;8.50;1.00
1592;DHT22;789;51.612;7.510;2024-01-06T03:38:24;8.40;1.00
1592;DHT22;789;51.612;7.510;2024-01-06T03:40:51;8.40;1.00
1592;DHT22;789;51.612;7.510;2024-01-06T03:43:19;8.40;1.00
1592;DHT22;789;51.612;7.510;2024-01-06T03:45:45;8.40;1.00
1592;DHT22;789;51.612;7.510;2024-01-06T03:48:13;8.60;1.00
1592;DHT22;789;51.612;7.510;2024-01-06T03:50:40;8.40;1.00
1592;DHT22;789;51.612;7.510;2024-01-06T03:53:07;8.60;1.00
1592;DHT22;789;51.612;7.510;2024-01-06T03:55:33;8.50;1.00
1592;DHT22;789;51.612;7.510;2024-01-06T03:58:00;8.40;1.00
1592;DHT22;789;51.612;7.510;2024-01-06T04:00:27;8.40;1.00
1592;DHT22;789;51.612;7.510;2024-01-06T04:02:53;8.30;1.00
1592;DHT22;789;51.612;7.510;2024-01-06T04:05:23;8.30;1.00
1592;DHT22;789;51.612;7.510;2024-01-06T04:07:49;8.40;1.00
1592;DHT22;789;51.612;7.510;2024-01-06T04:10:16;8.50;1.00
1592;DHT22;789;51.612;7.510;2024-01-06T04:12:43;8.30;1.00
1592;DHT22;789;51.612;7.510;2024-01-06T04:15:10;8.20;1.00
1592;DHT22;789;51.612;7.510;2024-01-06T04:17:36;8.20;1.00
1592;DHT22;789;51.612;7.510;2024-01-06T04:20:04;8.20;1.00
1592;DHT22;789;51.612;7.510;2024-01-06T04:22:32;8.10;1.00
1592;DHT22;789;51.612;7.510;2024-01-06T04:24:59;8.10;1.00
1592;DHT22;789;51.612;7.510;2024-01-06T04:27:25;8.10;1.00
1592;DHT22;789;51.612;7.510;2024-01-06T04:29:52;8.00;1.00
1592;DHT22;789;51.612;7.510;2024-01-06T04:32:19;7.90;1.00
1592;DHT22;789;51.612;7.510;2024-01-06T04:34:45;7.90;1.00
1592;DHT22;789;51.612;7.510;2024-01-06T04:37:17;8.00;1.00
1592;DHT22;789;51.612;7.510;2024-01-06T04:39:52;8.10;1.00
1592;DHT22;789;51.612;7.510;2024-01-06T04:42:19;8.10;1.00
1592;DHT22;789;51.612;7.510;2024-01-06T04:44:47;8.10;1.00
1592;DHT22;789;51.612;7.510;2024-01-06T04:47:14;8.10;1.00
1592;DHT22;789;51.612;7.510;2024-01-06T04:49:41;8.10;1.00
1592;DHT22;789;51.612;7.510;2024-01-06T04:52:07;8.10;1.00
1592;DHT22;789;51.612;7.510;2024-01-06T04:54:36;8.00;1.00
1592;DHT22;789;51.612;7.510;2024-01-06T04:57:04;8.00;1.00
1592;DHT22;789;51.612;7.510;2024-01-06T04:59:31;7.90;1.00
1592;DHT22;789;51.612;7.510;2024-01-06T05:01:58;8.10;1.00
1592;DHT22;789;51.612;7.510;2024-01-06T05:04:25;7.90;1.00
1592;DHT22;789;51.612;7.510;2024-01-06T05:06:52;7.90;1.00
1592;DHT22;789;51.612;7.510;2024-01-06T05:09:19;7.90;1.00
1592;DHT22;789;51.612;7.510;2024-01-06T05:11:46;7.90;1.00
1592;DHT22;789;51.612;7.510;2024-01-06T05:14:14;7.90;1.00
1592;DHT22;789;51.612;7.510;2024-01-06T05:16:41;7.90;1.00
1592;DHT22;789;51.612;7.510;2024-01-06T05:19:08;7.80;1.00
1592;DHT22;789;51.612;7.510;2024-01-06T05:21:35;7.80;1.00
1592;DHT22;789;51.612;7.510;2024-01-06T05:24:02;7.80;1.00
1592;DHT22;789;51.612;7.510;2024-01-06T05:26:29;7.90;1.00
1592;DHT22;789;51.612;7.510;2024-01-06T05:28:56;7.90;1.00
1592;DHT22;789;51.612;7.510;2024-01-06T05:31:24;7.90;1.00
1592;DHT22;789;51.612;7.510;2024-01-06T05:33:50;7.90;1.00
1592;DHT22;789;51.612;7.510;2024-01-06T05:36:19;7.90;1.00
1592;DHT22;789;51.612;7.510;2024-01-06T05:38:46;7.90;1.00
1592;DHT22;789;51.612;7.510;2024-01-06T05:41:14;7.90;1.00
1592;DHT22;789;51.612;7.510;2024-01-06T05:43:41;7.90;1.00
1592;DHT22;789;51.612;7.510;2024-01-06T05:46:08;7.90;1.00
1592;DHT22;789;51.612;7.510;2024-01-06T05:48:37;7.80;1.00
1592;DHT22;789;51.612;7.510;2024-01-06T05:51:05;7.80;1.00
1592;DHT22;789;51.612;7.510;2024-01-06T05:53:32;7.80;1.00
1592;DHT22;789;51.612;7.510;2024-01-06T05:55:59;7.70;1.00
1592;DHT22;789;51.612;7.510;2024-01-06T05:58:25;7.80;1.00
1592;DHT22;789;51.612;7.510;2024-01-06T06:00:54;7.70;1.00
1592;DHT22;789;51.612;7.510;2024-01-06T06:03:20;7.80;1.00
1592;DHT22;789;51.612;7.510;2024-01-06T06:05:48;7.70;1.00
1592;DHT22;789;51.612;7.510;2024-01-06T06:08:15;7.60;1.00
1592;DHT22;789;51.612;7.510;2024-01-06T06:10:42;7.50;1.00
1592;DHT22;789;51.612;7.510;2024-01-06T06:13:25;7.40;1.00
1592;DHT22;789;51.612;7.510;2024-01-06T06:15:51;7.30;1.00
1592;DHT22;789;51.612;7.510;2024-01-06T06:18:18;7.30;1.00
1592;DHT22;789;51.612;7.510;2024-01-06T06:20:45;7.30;1.00
1592;DHT22;789;51.612;7.510;2024-01-06T06:23:13;7.30;1.00
1592;DHT22;789;51.612;7.510;2024-01-06T06:25:40;7.40;1.00
1592;DHT22;789;51.612;7.510;2024-01-06T06:28:07;7.30;1.00
1592;DHT22;789;51.612;7.510;2024-01-06T06:30:33;7.30;1.00
1592;DHT22;789;51.612;7.510;2024-01-06T06:33:00;7.40;1.00
1592;DHT22;789;51.612;7.510;2024-01-06T06:35:27;7.40;1.00
1592;DHT22;789;51.612;7.510;2024-01-06T06:37:53;7.40;1.00
1592;DHT22;789;51.612;7.510;2024-01-06T06:40:21;7.50;1.00
1592;DHT22;789;51.612;7.510;2024-01-06T06:42:48;7.60;1.00
1592;DHT22;789;51.612;7.510;2024-01-06T06:45:15;7.70;1.00
1592;DHT22;789;51.612;7.510;2024-01-06T06:47:42;7.70;1.00
1592;DHT22;789;51.612;7.510;2024-01-06T06:50:08;7.70;1.00
1592;DHT22;789;51.612;7.510;2024-01-06T06:52:35;7.70;1.00
1592;DHT22;789;51.612;7.510;2024-01-06T06:55:02;7.60;1.00
1592;DHT22;789;51.612;7.510;2024-01-06T06:57:30;7.60;1.00
1592;DHT22;789;51.612;7.510;2024-01-06T06:59:57;7.60;1.00
1592;DHT22;789;51.612;7.510;2024-01-06T07:02:25;7.50;1.00
1592;DHT22;789;51.612;7.510;2024-01-06T07:04:52;7.50;1.00
1592;DHT22;789;51.612;7.510;2024-01-06T07:07:19;7.60;1.00
1592;DHT22;789;51.612;7.510;2024-01-06T07:09:45;7.50;1.00
1592;DHT22;789;51.612;7.510;2024-01-06T07:12:13;7.50;1.00
1592;DHT22;789;51.612;7.510;2024-01-06T07:14:47;7.50;1.00
1592;DHT22;789;51.612;7.510;2024-01-06T07:17:14;7.40;1.00
1592;DHT22;789;51.612;7.510;2024-01-06T07:19:41;7.40;1.00
1592;DHT22;789;51.612;7.510;2024-01-06T07:22:08;7.40;1.00
1592;DHT22;789;51.612;7.510;2024-01-06T07:24:34;7.30;1.00
1592;DHT22;789;51.612;7.510;2024-01-06T07:27:02;7.30;1.00
1592;DHT22;789;51.612;7.510;2024-01-06T07:29:29;7.30;1.00
1592;DHT22;789;51.612;7.510;2024-01-06T07:31:57;7.30;1.00
1592;DHT22;789;51.612;7.510;2024-01-06T07:34:24;7.30;1.00
1592;DHT22;789;51.612;7.510;2024-01-06T07:36:51;7.20;1.00
1592;DHT22;789;51.612;7.510;2024-01-06T07:39:18;7.20;1.00
1592;DHT22;789;51.612;7.510;2024-01-06T07:41:44;7.20;1.00
1592;DHT22;789;51.612;7.510;2024-01-06T07:44:11;7.10;1.00
1592;DHT22;789;51.612;7.510;2024-01-06T07:46:38;7.10;1.00
1592;DHT22;789;51.612;7.510;2024-01-06T07:49:07;7.10;1.00
1592;DHT22;789;51.612;7.510;2024-01-06T07:51:33;7.10;1.00
1592;DHT22;789;51.612;7.510;2024-01-06T07:54:01;7.00;1.00
1592;DHT22;789;51.612;7.510;2024-01-06T07:56:27;7.00;1.00
1592;DHT22;789;51.612;7.510;2024-01-06T07:58:54;7.10;1.00
1592;DHT22;789;51.612;7.510;2024-01-06T08:01:21;7.00;1.00
1592;DHT22;789;51.612;7.510;2024-01-06T08:03:48;7.00;1.00
1592;DHT22;789;51.612;7.510;2024-01-06T08:06:16;7.00;1.00
1592;DHT22;789;51.612;7.510;2024-01-06T08:08:43;6.90;1.00
1592;DHT22;789;51.612;7.510;2024-01-06T08:11:11;6.90;1.00
1592;DHT22;789;51.612;7.510;2024-01-06T08:13:38;6.90;1.00
1592;DHT22;789;51.612;7.510;2024-01-06T08:16:05;6.90;1.00
1592;DHT22;789;51.612;7.510;2024-01-06T08:18:32;6.90;1.00
1592;DHT22;789;51.612;7.510;2024-01-06T08:20:58;6.90;1.00
1592;DHT22;789;51.612;7.510;2024-01-06T08:23:26;7.00;1.00
1592;DHT22;789;51.612;7.510;2024-01-06T08:25:53;7.10;1.00
1592;DHT22;789;51.612;7.510;2024-01-06T08:28:19;7.10;1.00
1592;DHT22;789;51.612;7.510;2024-01-06T08:30:48;7.20;1.00
1592;DHT22;789;51.612;7.510;2024-01-06T08:33:15;7.10;1.00
1592;DHT22;789;51.612;7.510;2024-01-06T08:35:45;7.00;1.00
1592;DHT22;789;51.612;7.510;2024-01-06T08:38:13;7.10;1.00
1592;DHT22;789;51.612;7.510;2024-01-06T08:40:41;7.00;1.00
1592;DHT22;789;51.612;7.510;2024-01-06T08:43:09;7.00;1.00
1592;DHT22;789;51.612;7.510;2024-01-06T08:45:36;7.10;1.00
1592;DHT22;789;51.612;7.510;2024-01-06T08:48:04;7.10;1.00
1592;DHT22;789;51.612;7.510;2024-01-06T08:50:30;7.10;1.00
1592;DHT22;789;51.612;7.510;2024-01-06T08:52:57;7.10;1.00
1592;DHT22;789;51.612;7.510;2024-01-06T08:55:24;7.10;1.00
1592;DHT22;789;51.612;7.510;2024-01-06T08:57:52;7.10;1.00
1592;DHT22;789;51.612;7.510;2024-01-06T09:00:19;7.10;1.00
1592;DHT22;789;51.612;7.510;2024-01-06T09:02:47;7.10;1.00
1592;DHT22;789;51.612;7.510;2024-01-06T09:05:14;7.10;1.00
1592;DHT22;789;51.612;7.510;2024-01-06T09:07:41;6.90;1.00
1592;DHT22;789;51.612;7.510;2024-01-06T09:10:08;6.90;1.00
1592;DHT22;789;51.612;7.510;2024-01-06T09:12:35;6.80;1.00
1592;DHT22;789;51.612;7.510;2024-01-06T09:15:03;6.80;1.00
1592;DHT22;789;51.612;7.510;2024-01-06T09:17:30;6.70;1.00
1592;DHT22;789;51.612;7.510;2024-01-06T09:19:57;6.70;1.00
1592;DHT22;789;51.612;7.510;2024-01-06T09:22:24;6.70;1.00
1592;DHT22;789;51.612;7.510;2024-01-06T09:24:50;6.60;1.00
1592;DHT22;789;51.612;7.510;2024-01-06T09:27:18;6.50;1.00
1592;DHT22;789;51.612;7.510;2024-01-06T09:29:45;6.50;1.00
1592;DHT22;789;51.612;7.510;2024-01-06T09:32:13;6.50;1.00
1592;DHT22;789;51.612;7.510;2024-01-06T09:34:40;6.50;1.00
1592;DHT22;789;51.612;7.510;2024-01-06T09:37:06;6.50;1.00
1592;DHT22;789;51.612;7.510;2024-01-06T09:39:33;6.40;1.00
1592;DHT22;789;51.612;7.510;2024-01-06T09:42:00;6.40;1.00
1592;DHT22;789;51.612;7.510;2024-01-06T09:44:27;6.30;1.00
1592;DHT22;789;51.612;7.510;2024-01-06T09:46:58;6.30;1.00
1592;DHT22;789;51.612;7.510;2024-01-06T09:49:28;6.40;1.00
1592;DHT22;789;51.612;7.510;2024-01-06T09:51:58;6.40;1.00
1592;DHT22;789;51.612;7.510;2024-01-06T09:54:30;6.40;1.00
1592;DHT22;789;51.612;7.510;2024-01-06T09:56:59;6.40;1.00
1592;DHT22;789;51.612;7.510;2024-01-06T09:59:27;6.50;1.00
1592;DHT22;789;51.612;7.510;2024-01-06T10:01:57;6.50;1.00
1592;DHT22;789;51.612;7.510;2024-01-06T10:04:24;6.50;1.00
1592;DHT22;789;51.612;7.510;2024-01-06T10:06:52;6.50;1.00
1592;DHT22;789;51.612;7.510;2024-01-06T10:09:26;6.50;1.00
1592;DHT22;789;51.612;7.510;2024-01-06T10:11:55;6.40;1.00
1592;DHT22;789;51.612;7.510;2024-01-06T10:14:23;6.50;1.00
1592;DHT22;789;51.612;7.510;2024-01-06T10:16:50;6.50;1.00
1592;DHT22;789;51.612;7.510;2024-01-06T10:19:17;6.40;1.00
1592;DHT22;789;51.612;7.510;2024-01-06T10:21:43;6.40;1.00
1592;DHT22;789;51.612;7.510;2024-01-06T10:24:12;6.40;1.00
1592;DHT22;789;51.612;7.510;2024-01-06T10:26:39;6.40;1.00
1592;DHT22;789;51.612;7.510;2024-01-06T10:29:06;6.30;1.00
1592;DHT22;789;51.612;7.510;2024-01-06T10:31:32;6.30;1.00
1592;DHT22;789;51.612;7.510;2024-01-06T10:34:00;6.30;1.00
1592;DHT22;789;51.612;7.510;2024-01-06T10:36:27;6.30;1.00
1592;DHT22;789;51.612;7.510;2024-01-06T10:38:55;6.40;1.00
1592;DHT22;789;51.612;7.510;2024-01-06T10:41:26;6.40;1.00
1592;DHT22;789;51.612;7.510;2024-01-06T10:43:54;6.40;1.00
1592;DHT22;789;51.612;7.510;2024-01-06T10:46:22;6.40;1.00
1592;DHT22;789;51.612;7.510;2024-01-06T10:48:51;6.40;1.00
1592;DHT22;789;51.612;7.510;2024-01-06T10:51:19;6.40;1.00
1592;DHT22;789;51.612;7.510;2024-01-06T10:53:48;6.50;1.00
1592;DHT22;789;51.612;7.510;2024-01-06T10:56:16;6.50;1.00
1592;DHT22;789;51.612;7.510;2024-01-06T10:58:46;6.40;1.00
1592;DHT22;789;51.612;7.510;2024-01-06T11:01:19;6.40;1.00
1592;DHT22;789;51.612;7.510;2024-01-06T11:03:48;6.40;1.00
1592;DHT22;789;51.612;7.510;2024-01-06T11:06:15;6.40;1.00
1592;DHT22;789;51.612;7.510;2024-01-06T11:08:46;6.50;1.00
1592;DHT22;789;51.612;7.510;2024-01-06T11:11:16;6.40;1.00
1592;DHT22;789;51.612;7.510;2024-01-06T11:13:42;6.40;1.00
1592;DHT22;789;51.612;7.510;2024-01-06T11:16:33;6.30;1.00
1592;DHT22;789;51.612;7.510;2024-01-06T11:19:00;6.40;1.00
1592;DHT22;789;51.612;7.510;2024-01-06T11:21:27;6.40;1.00
1592;DHT22;789;51.612;7.510;2024-01-06T11:24:14;6.40;1.00
1592;DHT22;789;51.612;7.510;2024-01-06T11:26:43;6.60;1.00
1592;DHT22;789;51.612;7.510;2024-01-06T11:29:10;6.40;1.00
1592;DHT22;789;51.612;7.510;2024-01-06T11:31:39;6.50;1.00
1592;DHT22;789;51.612;7.510;2024-01-06T11:34:15;6.50;1.00
1592;DHT22;789;51.612;7.510;2024-01-06T11:36:43;6.50;1.00
1592;DHT22;789;51.612;7.510;2024-01-06T11:39:34;6.50;1.00
1592;DHT22;789;51.612;7.510;2024-01-06T11:42:02;6.50;1.00
1592;DHT22;789;51.612;7.510;2024-01-06T11:44:37;6.40;1.00
1592;DHT22;789;51.612;7.510;2024-01-06T11:47:05;6.30;1.00
1592;DHT22;789;51.612;7.510;2024-01-06T11:49:32;6.20;1.00
1592;DHT22;789;51.612;7.510;2024-01-06T11:51:59;6.20;1.00
1592;DHT22;789;51.612;7.510;2024-01-06T11:54:28;6.20;1.00
1592;DHT22;789;51.612;7.510;2024-01-06T11:56:55;6.30;1.00
1592;DHT22;789;51.612;7.510;2024-01-06T11:59:25;6.30;1.00
1592;DHT22;789;51.612;7.510;2024-01-06T12:01:52;6.30;1.00
1592;DHT22;789;51.612;7.510;2024-01-06T12:04:20;6.20;1.00
1592;DHT22;789;51.612;7.510;2024-01-06T12:06:50;6.20;1.00
1592;DHT22;789;51.612;7.510;2024-01-06T12:09:17;6.10;1.00
1592;DHT22;789;51.612;7.510;2024-01-06T12:11:45;6.10;1.00
1592;DHT22;789;51.612;7.510;2024-01-06T12:14:12;6.10;1.00
1592;DHT22;789;51.612;7.510;2024-01-06T12:16:39;6.00;1.00
1592;DHT22;789;51.612;7.510;2024-01-06T12:19:06;6.00;1.00
1592;DHT22;789;51.612;7.510;2024-01-06T12:21:34;5.90;1.00
1592;DHT22;789;51.612;7.510;2024-01-06T12:24:15;5.90;1.00
1592;DHT22;789;51.612;7.510;2024-01-06T12:26:43;6.00;1.00
1592;DHT22;789;51.612;7.510;2024-01-06T12:29:10;6.00;1.00
1592;DHT22;789;51.612;7.510;2024-01-06T12:31:38;6.10;1.00
1592;DHT22;789;51.612;7.510;2024-01-06T12:34:05;6.10;1.00
1592;DHT22;789;51.612;7.510;2024-01-06T12:36:34;6.00;1.00
1592;DHT22;789;51.612;7.510;2024-01-06T12:39:01;6.00;1.00
1592;DHT22;789;51.612;7.510;2024-01-06T12:41:29;6.00;1.00
1592;DHT22;789;51.612;7.510;2024-01-06T12:43:55;6.00;1.00
1592;DHT22;789;51.612;7.510;2024-01-06T12:46:22;6.00;1.00
1592;DHT22;789;51.612;7.510;2024-01-06T12:48:49;5.90;1.00
1592;DHT22;789;51.612;7.510;2024-01-06T12:51:16;5.90;1.00
1592;DHT22;789;51.612;7.510;2024-01-06T12:53:44;5.90;1.00
1592;DHT22;789;51.612;7.510;2024-01-06T12:56:11;5.90;1.00
1592;DHT22;789;51.612;7.510;2024-01-06T12:58:39;5.90;1.00
1592;DHT22;789;51.612;7.510;2024-01-06T13:01:06;5.90;1.00
1592;DHT22;789;51.612;7.510;2024-01-06T13:03:34;5.80;1.00
1592;DHT22;789;51.612;7.510;2024-01-06T13:06:01;5.90;1.00
1592;DHT22;789;51.612;7.510;2024-01-06T13:08:28;5.80;1.00
1592;DHT22;789;51.612;7.510;2024-01-06T13:10:57;5.80;1.00
1592;DHT22;789;51.612;7.510;2024-01-06T13:13:23;5.80;1.00
1592;DHT22;789;51.612;7.510;2024-01-06T13:15:50;5.70;1.00
1592;DHT22;789;51.612;7.510;2024-01-06T13:18:17;5.60;1.00
1592;DHT22;789;51.612;7.510;2024-01-06T13:20:44;5.50;1.00
1592;DHT22;789;51.612;7.510;2024-01-06T13:23:11;5.50;1.00
1592;DHT22;789;51.612;7.510;2024-01-06T13:25:38;5.50;1.00
1592;DHT22;789;51.612;7.510;2024-01-06T13:28:07;5.60;1.00
1592;DHT22;789;51.612;7.510;2024-01-06T13:30:34;5.60;1.00
1592;DHT22;789;51.612;7.510;2024-01-06T13:33:02;5.50;1.00
1592;DHT22;789;51.612;7.510;2024-01-06T13:35:29;5.50;1.00
1592;DHT22;789;51.612;7.510;2024-01-06T13:37:57;5.60;1.00
1592;DHT22;789;51.612;7.510;2024-01-06T13:40:24;5.40;1.00
1592;DHT22;789;51.612;7.510;2024-01-06T13:42:51;5.50;1.00
1592;DHT22;789;51.612;7.510;2024-01-06T13:45:21;5.50;1.00
1592;DHT22;789;51.612;7.510;2024-01-06T13:47:47;5.50;1.00
1592;DHT22;789;51.612;7.510;2024-01-06T13:50:15;5.50;1.00
1592;DHT22;789;51.612;7.510;2024-01-06T13:52:43;5.50;1.00
1592;DHT22;789;51.612;7.510;2024-01-06T13:55:11;5.50;1.00
1592;DHT22;789;51.612;7.510;2024-01-06T13:57:38;5.50;1.00
1592;DHT22;789;51.612;7.510;2024-01-06T14:00:07;5.60;1.00
1592;DHT22;789;51.612;7.510;2024-01-06T14:02:35;5.60;1.00
1592;DHT22;789;51.612;7.510;2024-01-06T14:05:03;5.50;1.00
1592;DHT22;789;51.612;7.510;2024-01-06T14:07:33;5.40;1.00
1592;DHT22;789;51.612;7.510;2024-01-06T14:10:00;5.50;1.00
1592;DHT22;789;51.612;7.510;2024-01-06T14:12:29;5.50;1.00
1592;DHT22;789;51.612;7.510;2024-01-06T14:14:56;5.60;1.00
1592;DHT22;789;51.612;7.510;2024-01-06T14:17:24;5.70;1.00
1592;DHT22;789;51.612;7.510;2024-01-06T14:19:52;5.70;1.00
1592;DHT22;789;51.612;7.510;2024-01-06T14:22:18;5.70;1.00
1592;DHT22;789;51.612;7.510;2024-01-06T14:24:45;5.70;1.00
1592;DHT22;789;51.612;7.510;2024-01-06T14:27:13;5.70;1.00
1592;DHT22;789;51.612;7.510;2024-01-06T14:29:40;5.80;1.00
1592;DHT22;789;51.612;7.510;2024-01-06T14:32:07;5.80;1.00
1592;DHT22;789;51.612;7.510;2024-01-06T14:34:34;5.80;1.00
1592;DHT22;789;51.612;7.510;2024-01-06T14:37:02;5.80;1.00
1592;DHT22;789;51.612;7.510;2024-01-06T14:39:29;5.70;1.00
1592;DHT22;789;51.612;7.510;2024-01-06T14:41:56;5.70;1.00
1592;DHT22;789;51.612;7.510;2024-01-06T14:44:22;5.90;1.00
1592;DHT22;789;51.612;7.510;2024-01-06T14:46:53;5.80;1.00
1592;DHT22;789;51.612;7.510;2024-01-06T14:49:20;5.60;1.00
1592;DHT22;789;51.612;7.510;2024-01-06T14:51:47;5.40;1.00
1592;DHT22;789;51.612;7.510;2024-01-06T14:54:15;5.40;1.00
1592;DHT22;789;51.612;7.510;2024-01-06T14:56:42;5.30;1.00
1592;DHT22;789;51.612;7.510;2024-01-06T14:59:08;5.30;1.00
1592;DHT22;789;51.612;7.510;2024-01-06T15:01:35;5.20;1.00
1592;DHT22;789;51.612;7.510;2024-01-06T15:04:02;5.10;1.00
1592;DHT22;789;51.612;7.510;2024-01-06T15:06:29;5.20;1.00
1592;DHT22;789;51.612;7.510;2024-01-06T15:08:56;5.20;1.00
1592;DHT22;789;51.612;7.510;2024-01-06T15:11:24;5.20;1.00
1592;DHT22;789;51.612;7.510;2024-01-06T15:13:50;5.20;1.00
1592;DHT22;789;51.612;7.510;2024-01-06T15:16:17;5.10;1.00
1592;DHT22;789;51.612;7.510;2024-01-06T15:18:44;5.10;1.00
1592;DHT22;789;51.612;7.510;2024-01-06T15:21:12;5.10;1.00
1592;DHT22;789;51.612;7.510;2024-01-06T15:23:40;5.10;1.00
1592;DHT22;789;51.612;7.510;2024-01-06T15:26:07;5.20;1.00
1592;DHT22;789;51.612;7.510;2024-01-06T15:28:35;5.20;1.00
1592;DHT22;789;51.612;7.510;2024-01-06T15:31:02;5.30;1.00
1592;DHT22;789;51.612;7.510;2024-01-06T15:33:29;5.30;1.00
1592;DHT22;789;51.612;7.510;2024-01-06T15:35:55;5.40;1.00
1592;DHT22;789;51.612;7.510;2024-01-06T15:38:24;5.40;1.00
1592;DHT22;789;51.612;7.510;2024-01-06T15:40:53;5.40;1.00
1592;DHT22;789;51.612;7.510;2024-01-06T15:43:20;5.40;1.00
1592;DHT22;789;51.612;7.510;2024-01-06T15:45:48;5.40;1.00
1592;DHT22;789;51.612;7.510;2024-01-06T15:48:14;5.40;1.00
1592;DHT22;789;51.612;7.510;2024-01-06T15:50:41;5.40;1.00
1592;DHT22;789;51.612;7.510;2024-01-06T15:53:09;5.40;1.00
1592;DHT22;789;51.612;7.510;2024-01-06T15:55:39;5.30;1.00
1592;DHT22;789;51.612;7.510;2024-01-06T15:58:06;5.30;1.00
1592;DHT22;789;51.612;7.510;2024-01-06T16:00:33;5.30;1.00
1592;DHT22;789;51.612;7.510;2024-01-06T16:03:01;5.40;1.00
1592;DHT22;789;51.612;7.510;2024-01-06T16:05:28;5.30;1.00
1592;DHT22;789;51.612;7.510;2024-01-06T16:07:54;5.30;1.00
1592;DHT22;789;51.612;7.510;2024-01-06T16:10:21;5.40;1.00
1592;DHT22;789;51.612;7.510;2024-01-06T16:12:48;5.40;1.00
1592;DHT22;789;51.612;7.510;2024-01-06T16:15:16;5.40;1.00
1592;DHT22;789;51.612;7.510;2024-01-06T16:17:45;5.40;1.00
1592;DHT22;789;51.612;7.510;2024-01-06T16:20:13;5.40;1.00
1592;DHT22;789;51.612;7.510;2024-01-06T16:22:40;5.40;1.00
1592;DHT22;789;51.612;7.510;2024-01-06T16:25:08;5.40;1.00
1592;DHT22;789;51.612;7.510;2024-01-06T16:27:35;5.40;1.00
1592;DHT22;789;51.612;7.510;2024-01-06T16:30:02;5.50;1.00
1592;DHT22;789;51.612;7.510;2024-01-06T16:32:29;5.50;1.00
1592;DHT22;789;51.612;7.510;2024-01-06T16:34:56;5.50;1.00
1592;DHT22;789;51.612;7.510;2024-01-06T16:37:24;5.50;1.00
1592;DHT22;789;51.612;7.510;2024-01-06T16:39:50;5.50;1.00
1592;DHT22;789;51.612;7.510;2024-01-06T16:42:18;5.50;1.00
1592;DHT22;789;51.612;7.510;2024-01-06T16:44:45;5.50;1.00
1592;DHT22;789;51.612;7.510;2024-01-06T16:47:12;5.50;1.00
1592;DHT22;789;51.612;7.510;2024-01-06T16:49:38;5.50;1.00
1592;DHT22;789;51.612;7.510;2024-01-06T16:52:05;5.50;1.00
1592;DHT22;789;51.612;7.510;2024-01-06T16:54:33;5.40;1.00